Time,TemperatureF,DewpointF,PressureIn,WindDirection,WindDirectionDegrees,WindSpeedMPH,WindSpeedGustMPH,Humidity,HourlyPrecipIn,Conditions,Clouds,dailyrainin,SoftwareType,DateUTC
2013-07-02 00:01:00,78.0,74.5,30.06,ESE,111,0.0,0.0,89,0.00,,,0.00,Wunderground v.1.15,2013-07-02 04:01:00,
2013-07-02 00:02:00,78.1,74.6,30.06,ESE,111,0.0,0.0,89,0.00,,,0.00,Wunderground v.1.15,2013-07-02 04:02:00,
2013-07-02 00:03:00,78.1,74.9,30.06,ESE,111,0.0,0.0,90,0.00,,,0.00,Wunderground v.1.15,2013-07-02 04:03:00,
2013-07-02 00:04:00,78.1,74.9,30.06,ESE,111,0.0,0.0,90,0.00,,,0.00,Wunderground v.1.15,2013-07-02 04:04:00,
2013-07-02 00:07:00,78.1,74.6,30.06,ESE,111,0.0,0.0,89,0.00,,,0.00,Wunderground v.1.15,2013-07-02 04:07:00,
2013-07-02 00:13:00,78.2,75.0,30.05,ESE,111,0.0,0.0,90,0.00,,,0.00,Wunderground v.1.15,2013-07-02 04:13:00,
2013-07-02 00:19:00,78.2,75.0,30.05,ESE,112,0.0,0.0,90,0.00,,,0.00,Wunderground v.1.15,2013-07-02 04:19:00,
2013-07-02 00:24:00,78.2,75.0,30.05,ESE,111,0.0,0.0,90,0.00,,,0.00,Wunderground v.1.15,2013-07-02 04:24:00,
2013-07-02 00:30:00,78.3,75.1,30.05,ESE,111,0.0,0.0,90,0.00,,,0.00,Wunderground v.1.15,2013-07-02 04:30:00,
2013-07-02 00:35:00,78.3,75.1,30.05,ESE,111,0.0,0.0,90,0.00,,,0.00,Wunderground v.1.15,2013-07-02 04:35:00,
2013-07-02 00:40:00,78.3,75.1,30.05,ESE,111,0.0,0.0,90,0.00,,,0.00,Wunderground v.1.15,2013-07-02 04:40:00,
2013-07-02 00:46:00,78.3,75.5,30.04,ESE,111,0.0,0.0,91,0.00,,,0.00,Wunderground v.1.15,2013-07-02 04:46:00,
2013-07-02 00:52:00,78.3,75.5,30.04,ESE,111,0.0,0.0,91,0.00,,,0.00,Wunderground v.1.15,2013-07-02 04:52:00,
2013-07-02 00:57:00,78.3,75.5,30.04,ESE,112,0.0,0.0,91,0.00,,,0.00,Wunderground v.1.15,2013-07-02 04:57:00,
2013-07-02 01:02:00,78.3,75.5,30.04,ESE,112,0.0,0.0,91,0.00,,,0.00,Wunderground v.1.15,2013-07-02 05:02:00,
2013-07-02 01:08:00,78.2,75.4,30.04,ESE,111,0.0,0.0,91,0.00,,,0.00,Wunderground v.1.15,2013-07-02 05:08:00,
2013-07-02 01:14:00,78.1,75.3,30.04,ESE,111,0.0,0.0,91,0.00,,,0.00,Wunderground v.1.15,2013-07-02 05:14:00,
2013-07-02 01:20:00,78.1,75.3,30.04,ESE,111,0.0,0.0,91,0.00,,,0.00,Wunderground v.1.15,2013-07-02 05:20:00,
2013-07-02 01:25:00,78.0,75.2,30.04,ESE,112,0.0,0.0,91,0.00,,,0.00,Wunderground v.1.15,2013-07-02 05:25:00,
2013-07-02 01:30:00,78.0,75.2,30.03,ESE,111,0.0,0.0,91,0.00,,,0.00,Wunderground v.1.15,2013-07-02 05:30:00,
2013-07-02 01:35:00,77.9,75.1,30.03,ESE,111,0.0,0.0,91,0.00,,,0.00,Wunderground v.1.15,2013-07-02 05:35:00,
2013-07-02 01:41:00,78.0,75.5,30.03,ESE,111,0.0,0.0,92,0.00,,,0.00,Wunderground v.1.15,2013-07-02 05:41:00,
2013-07-02 01:46:00,78.1,75.6,30.03,ESE,112,0.0,0.0,92,0.00,,,0.00,Wunderground v.1.15,2013-07-02 05:46:00,
2013-07-02 01:51:00,78.3,75.8,30.03,ESE,111,0.0,0.0,92,0.00,,,0.00,Wunderground v.1.15,2013-07-02 05:51:00,
2013-07-02 01:56:00,78.5,76.0,30.03,ESE,108,0.0,2.0,92,0.00,,,0.00,Wunderground v.1.15,2013-07-02 05:56:00,
2013-07-02 02:01:00,78.6,75.8,30.02,ESE,105,0.0,0.0,91,0.00,,,0.00,Wunderground v.1.15,2013-07-02 06:01:00,
2013-07-02 02:06:00,78.8,75.9,30.02,East,89,0.0,6.0,91,0.00,,,0.00,Wunderground v.1.15,2013-07-02 06:06:00,
2013-07-02 02:11:00,79.0,76.1,30.02,East,92,2.0,3.0,91,0.00,,,0.00,Wunderground v.1.15,2013-07-02 06:11:00,
2013-07-02 02:16:00,79.0,75.8,30.02,ESE,122,0.0,5.0,90,0.00,,,0.00,Wunderground v.1.15,2013-07-02 06:16:00,
2013-07-02 02:21:00,79.0,75.5,30.02,ENE,76,1.0,4.0,89,0.00,,,0.00,Wunderground v.1.15,2013-07-02 06:21:00,
2013-07-02 02:26:00,79.0,75.5,30.02,East,85,0.0,6.0,89,0.00,,,0.00,Wunderground v.1.15,2013-07-02 06:26:00,
2013-07-02 02:31:00,78.9,75.4,30.02,East,101,0.0,4.0,89,0.00,,,0.00,Wunderground v.1.15,2013-07-02 06:31:00,
2013-07-02 02:36:00,78.8,75.3,30.01,East,91,0.0,4.0,89,0.00,,,0.00,Wunderground v.1.15,2013-07-02 06:36:00,
2013-07-02 02:41:00,78.5,74.6,30.01,East,101,0.0,4.0,88,0.00,,,0.00,Wunderground v.1.15,2013-07-02 06:41:00,
2013-07-02 02:46:00,78.3,74.5,30.01,ESE,107,0.0,4.0,88,0.00,,,0.00,Wunderground v.1.15,2013-07-02 06:46:00,
2013-07-02 02:51:00,78.2,74.4,30.01,East,101,0.0,2.0,88,0.00,,,0.00,Wunderground v.1.15,2013-07-02 06:51:00,
2013-07-02 02:56:00,78.2,74.7,30.01,ESE,103,0.0,2.0,89,0.00,,,0.00,Wunderground v.1.15,2013-07-02 06:56:00,
2013-07-02 03:01:00,78.2,74.7,30.01,SE,146,0.0,1.0,89,0.00,,,0.00,Wunderground v.1.15,2013-07-02 07:01:00,
2013-07-02 03:06:00,78.1,74.6,30.01,ESE,113,0.0,2.0,89,0.00,,,0.00,Wunderground v.1.15,2013-07-02 07:06:00,
2013-07-02 03:11:00,78.1,74.9,30.01,ESE,105,3.0,3.0,90,0.00,,,0.00,Wunderground v.1.15,2013-07-02 07:11:00,
2013-07-02 03:16:00,78.0,74.8,30.01,East,101,0.0,3.0,90,0.00,,,0.00,Wunderground v.1.15,2013-07-02 07:16:00,
2013-07-02 03:21:00,78.0,74.8,30.01,East,87,0.0,0.0,90,0.00,,,0.00,Wunderground v.1.15,2013-07-02 07:21:00,
2013-07-02 03:26:00,78.0,74.8,30.00,East,87,0.0,1.0,90,0.00,,,0.00,Wunderground v.1.15,2013-07-02 07:26:00,
2013-07-02 03:31:00,77.9,75.1,30.00,East,89,0.0,0.0,91,0.00,,,0.00,Wunderground v.1.15,2013-07-02 07:31:00,
2013-07-02 03:36:00,77.9,75.1,30.00,East,89,0.0,0.0,91,0.00,,,0.00,Wunderground v.1.15,2013-07-02 07:36:00,
2013-07-02 03:41:00,77.8,75.0,30.00,East,89,0.0,1.0,91,0.00,,,0.00,Wunderground v.1.15,2013-07-02 07:41:00,
2013-07-02 03:46:00,77.8,75.0,30.00,East,82,0.0,1.0,91,0.00,,,0.00,Wunderground v.1.15,2013-07-02 07:46:00,
2013-07-02 03:51:00,77.8,75.0,30.00,East,82,0.0,0.0,91,0.00,,,0.00,Wunderground v.1.15,2013-07-02 07:51:00,
2013-07-02 03:56:00,77.9,75.1,30.00,East,86,0.0,1.0,91,0.00,,,0.00,Wunderground v.1.15,2013-07-02 07:56:00,
2013-07-02 04:01:00,78.0,75.2,30.00,East,86,0.0,0.0,91,0.00,,,0.00,Wunderground v.1.15,2013-07-02 08:01:00,
2013-07-02 04:06:00,78.0,75.2,30.00,East,85,0.0,0.0,91,0.00,,,0.00,Wunderground v.1.15,2013-07-02 08:06:00,
2013-07-02 04:11:00,78.1,75.3,30.00,ESE,106,0.0,0.0,91,0.00,,,0.00,Wunderground v.1.15,2013-07-02 08:11:00,
2013-07-02 04:16:00,78.2,75.7,30.00,East,79,0.0,0.0,92,0.00,,,0.00,Wunderground v.1.15,2013-07-02 08:16:00,
2013-07-02 04:21:00,78.4,75.9,30.00,East,91,0.0,0.0,92,0.00,,,0.01,Wunderground v.1.15,2013-07-02 08:21:00,
2013-07-02 04:26:00,78.4,75.9,30.00,East,89,0.0,0.0,92,0.00,,,0.01,Wunderground v.1.15,2013-07-02 08:26:00,
2013-07-02 04:31:00,78.4,76.2,30.00,East,89,0.0,0.0,93,0.00,,,0.01,Wunderground v.1.15,2013-07-02 08:31:00,
2013-07-02 04:36:00,78.5,76.3,30.00,East,89,0.0,0.0,93,0.00,,,0.01,Wunderground v.1.15,2013-07-02 08:36:00,
2013-07-02 04:41:00,78.6,76.4,30.00,SSE,152,0.0,0.0,93,0.00,,,0.01,Wunderground v.1.15,2013-07-02 08:41:00,
2013-07-02 04:46:00,78.7,76.8,30.00,SSE,156,0.0,0.0,94,0.00,,,0.01,Wunderground v.1.15,2013-07-02 08:46:00,
2013-07-02 04:51:00,79.0,77.1,30.00,ESE,112,0.0,1.0,94,0.00,,,0.01,Wunderground v.1.15,2013-07-02 08:51:00,
2013-07-02 04:56:00,79.1,77.2,30.00,SE,125,0.0,1.0,94,0.00,,,0.01,Wunderground v.1.15,2013-07-02 08:56:00,
2013-07-02 05:02:00,79.4,77.5,29.99,ESE,118,2.0,2.0,94,0.00,,,0.01,Wunderground v.1.15,2013-07-02 09:02:00,
2013-07-02 05:07:00,79.6,77.7,29.99,ESE,111,0.0,3.0,94,0.00,,,0.01,Wunderground v.1.15,2013-07-02 09:07:00,
2013-07-02 05:12:00,79.8,77.9,29.99,ESE,117,0.0,2.0,94,0.00,,,0.01,Wunderground v.1.15,2013-07-02 09:12:00,
2013-07-02 05:17:00,80.0,78.1,30.00,East,96,0.0,3.0,94,0.00,,,0.01,Wunderground v.1.15,2013-07-02 09:17:00,
2013-07-02 05:22:00,80.2,78.0,30.00,ESE,110,0.0,1.0,93,0.00,,,0.01,Wunderground v.1.15,2013-07-02 09:22:00,
2013-07-02 05:27:00,80.3,78.1,30.00,ESE,108,3.0,6.0,93,0.00,,,0.01,Wunderground v.1.15,2013-07-02 09:27:00,
2013-07-02 05:32:00,80.5,78.3,30.00,East,89,2.0,6.0,93,0.00,,,0.01,Wunderground v.1.15,2013-07-02 09:32:00,
2013-07-02 05:37:00,80.7,78.5,30.00,East,87,2.0,6.0,93,0.00,,,0.01,Wunderground v.1.15,2013-07-02 09:37:00,
2013-07-02 05:42:00,80.8,78.3,30.01,ENE,58,3.0,8.0,92,0.00,,,0.01,Wunderground v.1.15,2013-07-02 09:42:00,
2013-07-02 05:47:00,80.6,77.7,30.01,East,92,2.0,8.0,91,0.00,,,0.01,Wunderground v.1.15,2013-07-02 09:47:00,
2013-07-02 05:52:00,80.1,76.6,30.01,East,101,0.0,5.0,89,0.00,,,0.01,Wunderground v.1.15,2013-07-02 09:52:00,
2013-07-02 05:57:00,79.8,76.3,30.01,East,96,2.0,5.0,89,0.00,,,0.01,Wunderground v.1.15,2013-07-02 09:57:00,
2013-07-02 06:02:00,79.5,76.0,30.01,East,79,0.0,2.0,89,0.00,,,0.01,Wunderground v.1.15,2013-07-02 10:02:00,
2013-07-02 06:07:00,79.4,76.2,30.01,ESE,108,1.0,2.0,90,0.00,,,0.01,Wunderground v.1.15,2013-07-02 10:07:00,
2013-07-02 06:12:00,79.4,76.2,30.01,ESE,107,0.0,1.0,90,0.00,,,0.01,Wunderground v.1.15,2013-07-02 10:12:00,
2013-07-02 06:17:00,79.4,76.5,30.02,ESE,108,0.0,1.0,91,0.00,,,0.01,Wunderground v.1.15,2013-07-02 10:17:00,
2013-07-02 06:22:00,79.3,76.4,30.02,ESE,117,0.0,0.0,91,0.00,,,0.01,Wunderground v.1.15,2013-07-02 10:22:00,
2013-07-02 06:27:00,79.4,76.9,30.02,ESE,111,1.0,2.0,92,0.00,,,0.01,Wunderground v.1.15,2013-07-02 10:27:00,
2013-07-02 06:32:00,79.6,77.1,30.02,SE,134,0.0,3.0,92,0.00,,,0.01,Wunderground v.1.15,2013-07-02 10:32:00,
2013-07-02 06:37:00,79.7,77.2,30.02,East,101,0.0,4.0,92,0.00,,,0.01,Wunderground v.1.15,2013-07-02 10:37:00,
2013-07-02 06:42:00,79.9,77.4,30.02,ESE,115,3.0,3.0,92,0.00,,,0.01,Wunderground v.1.15,2013-07-02 10:42:00,
2013-07-02 06:47:00,80.0,77.1,30.03,ESE,113,0.0,3.0,91,0.00,,,0.01,Wunderground v.1.15,2013-07-02 10:47:00,
2013-07-02 06:52:00,80.3,77.4,30.02,East,80,0.0,3.0,91,0.00,,,0.01,Wunderground v.1.15,2013-07-02 10:52:00,
2013-07-02 06:57:00,80.4,77.5,30.03,SE,129,3.0,4.0,91,0.00,,,0.01,Wunderground v.1.15,2013-07-02 10:57:00,
2013-07-02 07:02:00,80.6,77.7,30.03,ESE,103,1.0,3.0,91,0.00,,,0.01,Wunderground v.1.15,2013-07-02 11:02:00,
2013-07-02 07:07:00,80.7,77.8,30.03,ESE,108,1.0,3.0,91,0.00,,,0.01,Wunderground v.1.15,2013-07-02 11:07:00,
2013-07-02 07:12:00,80.9,78.0,30.03,ESE,114,0.0,3.0,91,0.00,,,0.01,Wunderground v.1.15,2013-07-02 11:12:00,
2013-07-02 07:17:00,81.0,78.1,30.03,SSE,163,0.0,4.0,91,0.00,,,0.01,Wunderground v.1.15,2013-07-02 11:17:00,
2013-07-02 07:22:00,81.1,78.2,30.03,SE,138,1.0,4.0,91,0.00,,,0.01,Wunderground v.1.15,2013-07-02 11:22:00,
2013-07-02 07:27:00,81.3,78.4,30.04,SE,146,0.0,4.0,91,0.00,,,0.01,Wunderground v.1.15,2013-07-02 11:27:00,
2013-07-02 07:32:00,81.6,78.7,30.03,SSE,148,0.0,3.0,91,0.00,,,0.01,Wunderground v.1.15,2013-07-02 11:32:00,
2013-07-02 07:37:00,81.8,78.6,30.03,SSE,159,0.0,6.0,90,0.00,,,0.01,Wunderground v.1.15,2013-07-02 11:37:00,
2013-07-02 07:42:00,82.0,78.8,30.03,SE,136,2.0,3.0,90,0.00,,,0.01,Wunderground v.1.15,2013-07-02 11:42:00,
2013-07-02 07:47:00,82.1,78.9,30.03,East,80,4.0,4.0,90,0.00,,,0.01,Wunderground v.1.15,2013-07-02 11:47:00,
2013-07-02 07:52:00,82.2,78.6,30.04,SE,128,1.0,5.0,89,0.00,,,0.01,Wunderground v.1.15,2013-07-02 11:52:00,
2013-07-02 07:57:00,82.3,78.7,30.05,East,88,2.0,5.0,89,0.00,,,0.01,Wunderground v.1.15,2013-07-02 11:57:00,
2013-07-02 08:02:00,82.4,78.8,30.05,SSE,160,3.0,3.0,89,0.00,,,0.01,Wunderground v.1.15,2013-07-02 12:02:00,
2013-07-02 08:07:00,82.5,78.9,30.04,SSE,155,0.0,4.0,89,0.00,,,0.01,Wunderground v.1.15,2013-07-02 12:07:00,
2013-07-02 08:12:00,82.5,78.9,30.05,ESE,105,0.0,5.0,89,0.00,,,0.01,Wunderground v.1.15,2013-07-02 12:12:00,
2013-07-02 08:17:00,82.7,79.1,30.05,ESE,106,0.0,5.0,89,0.00,,,0.01,Wunderground v.1.15,2013-07-02 12:17:00,
2013-07-02 08:22:00,82.9,79.0,30.05,ESE,105,0.0,6.0,88,0.00,,,0.01,Wunderground v.1.15,2013-07-02 12:22:00,
2013-07-02 08:27:00,83.0,78.7,30.05,ENE,70,0.0,6.0,87,0.00,,,0.01,Wunderground v.1.15,2013-07-02 12:27:00,
2013-07-02 08:32:00,83.0,78.7,30.05,ENE,73,2.0,6.0,87,0.00,,,0.01,Wunderground v.1.15,2013-07-02 12:32:00,
2013-07-02 08:37:00,82.9,78.6,30.05,East,91,4.0,8.0,87,0.00,,,0.01,Wunderground v.1.15,2013-07-02 12:37:00,
2013-07-02 08:42:00,82.9,78.6,30.05,SSE,162,0.0,6.0,87,0.00,,,0.01,Wunderground v.1.15,2013-07-02 12:42:00,
2013-07-02 08:47:00,82.9,78.6,30.06,East,79,0.0,6.0,87,0.00,,,0.01,Wunderground v.1.15,2013-07-02 12:47:00,
2013-07-02 08:52:00,83.0,78.7,30.06,SSW,205,2.0,4.0,87,0.00,,,0.01,Wunderground v.1.15,2013-07-02 12:52:00,
2013-07-02 08:57:00,82.8,78.2,30.06,ESE,121,3.0,7.0,86,0.00,,,0.01,Wunderground v.1.15,2013-07-02 12:57:00,
2013-07-02 09:02:00,82.8,78.5,30.06,East,101,1.0,2.0,87,0.00,,,0.01,Wunderground v.1.15,2013-07-02 13:02:00,
2013-07-02 09:07:00,82.6,78.0,30.06,ESE,106,4.0,6.0,86,0.00,,,0.01,Wunderground v.1.15,2013-07-02 13:07:00,
2013-07-02 09:12:00,82.5,78.2,30.06,ESE,108,1.0,5.0,87,0.00,,,0.01,Wunderground v.1.15,2013-07-02 13:12:00,
2013-07-02 09:17:00,82.4,78.5,30.06,SSW,193,0.0,5.0,88,0.00,,,0.03,Wunderground v.1.15,2013-07-02 13:17:00,
2013-07-02 09:22:00,82.4,78.8,30.06,East,84,5.0,6.0,89,0.00,,,0.03,Wunderground v.1.15,2013-07-02 13:22:00,
2013-07-02 09:27:00,82.5,78.9,30.06,East,101,0.0,6.0,89,0.00,,,0.03,Wunderground v.1.15,2013-07-02 13:27:00,
2013-07-02 09:32:00,82.6,79.0,30.07,SSW,211,0.0,5.0,89,0.00,,,0.03,Wunderground v.1.15,2013-07-02 13:32:00,
2013-07-02 09:37:00,82.7,79.1,30.07,SE,141,0.0,6.0,89,0.00,,,0.03,Wunderground v.1.15,2013-07-02 13:37:00,
2013-07-02 09:42:00,83.1,79.5,30.07,East,91,1.0,5.0,89,0.00,,,0.03,Wunderground v.1.15,2013-07-02 13:42:00,
2013-07-02 09:47:00,83.6,79.7,30.06,East,101,0.0,7.0,88,0.00,,,0.03,Wunderground v.1.15,2013-07-02 13:47:00,
2013-07-02 09:52:00,84.2,79.9,30.07,ESE,107,5.0,5.0,87,0.00,,,0.03,Wunderground v.1.15,2013-07-02 13:52:00,
2013-07-02 09:57:00,84.6,79.9,30.07,ESE,108,0.0,5.0,86,0.00,,,0.03,Wunderground v.1.15,2013-07-02 13:57:00,
2013-07-02 10:02:00,84.6,79.6,30.07,East,86,5.0,8.0,85,0.00,,,0.03,Wunderground v.1.15,2013-07-02 14:02:00,
2013-07-02 10:07:00,84.6,79.2,30.07,South,190,2.0,8.0,84,0.00,,,0.03,Wunderground v.1.15,2013-07-02 14:07:00,
2013-07-02 10:13:00,84.7,79.0,30.08,SW,214,0.0,5.0,83,0.00,,,0.03,Wunderground v.1.15,2013-07-02 14:13:00,
2013-07-02 10:18:00,84.9,79.5,30.07,SE,128,3.0,7.0,84,0.00,,,0.03,Wunderground v.1.15,2013-07-02 14:18:00,
2013-07-02 10:23:00,85.1,79.0,30.07,ENE,73,4.0,6.0,82,0.00,,,0.03,Wunderground v.1.15,2013-07-02 14:23:00,
2013-07-02 10:28:00,85.4,78.9,30.07,East,84,5.0,9.0,81,0.00,,,0.03,Wunderground v.1.15,2013-07-02 14:28:00,
2013-07-02 10:33:00,86.1,79.6,30.07,South,179,6.0,11.0,81,0.00,,,0.03,Wunderground v.1.15,2013-07-02 14:33:00,
2013-07-02 10:38:00,86.3,79.0,30.07,West,269,3.0,11.0,79,0.00,,,0.03,Wunderground v.1.15,2013-07-02 14:38:00,
2013-07-02 10:44:00,86.3,79.0,30.07,East,89,1.0,5.0,79,0.00,,,0.03,Wunderground v.1.15,2013-07-02 14:44:00,
2013-07-02 10:49:00,85.9,78.6,30.07,ESE,114,2.0,9.0,79,0.00,,,0.03,Wunderground v.1.15,2013-07-02 14:49:00,
2013-07-02 10:54:00,85.5,78.6,30.07,East,100,3.0,8.0,80,0.00,,,0.03,Wunderground v.1.15,2013-07-02 14:54:00,
2013-07-02 10:59:00,85.1,78.6,30.07,ESE,111,0.0,8.0,81,0.00,,,0.03,Wunderground v.1.15,2013-07-02 14:59:00,
2013-07-02 11:04:00,84.9,78.8,30.07,ENE,60,5.0,5.0,82,0.00,,,0.03,Wunderground v.1.15,2013-07-02 15:04:00,
2013-07-02 11:09:00,84.8,78.3,30.08,ESE,120,2.0,7.0,81,0.00,,,0.03,Wunderground v.1.15,2013-07-02 15:09:00,
2013-07-02 11:14:00,84.6,78.1,30.08,WSW,240,1.0,9.0,81,0.00,,,0.03,Wunderground v.1.15,2013-07-02 15:14:00,
2013-07-02 11:19:00,84.5,77.6,30.08,SSE,168,5.0,9.0,80,0.00,,,0.03,Wunderground v.1.15,2013-07-02 15:19:00,
2013-07-02 11:24:00,82.8,75.6,30.08,WSW,239,5.0,8.0,79,0.00,,,0.03,Wunderground v.1.15,2013-07-02 15:24:00,
2013-07-02 11:29:00,80.9,74.5,30.08,WSW,246,12.0,12.0,81,0.00,,,0.03,Wunderground v.1.15,2013-07-02 15:29:00,
2013-07-02 11:34:00,79.3,74.0,30.08,SSW,195,3.0,8.0,84,0.32,,,0.07,Wunderground v.1.15,2013-07-02 15:34:00,
2013-07-02 11:39:00,78.3,74.1,30.08,SW,225,0.0,8.0,87,0.13,,,0.08,Wunderground v.1.15,2013-07-02 15:39:00,
2013-07-02 11:44:00,77.9,74.1,30.08,SSE,166,0.0,2.0,88,0.08,,,0.08,Wunderground v.1.15,2013-07-02 15:44:00,
2013-07-02 11:49:00,77.5,74.0,30.08,SW,215,0.0,4.0,89,0.05,,,0.08,Wunderground v.1.15,2013-07-02 15:49:00,
2013-07-02 11:54:00,77.2,73.7,30.09,SW,223,0.0,3.0,89,0.04,,,0.09,Wunderground v.1.15,2013-07-02 15:54:00,
2013-07-02 11:59:00,77.0,73.8,30.09,SSW,195,0.0,3.0,90,0.04,,,0.09,Wunderground v.1.15,2013-07-02 15:59:00,
2013-07-02 12:04:00,76.9,74.1,30.09,SW,231,0.0,2.0,91,0.07,,,0.10,Wunderground v.1.15,2013-07-02 16:04:00,
2013-07-02 12:09:00,76.9,74.4,30.09,South,190,0.0,2.0,92,0.12,,,0.11,Wunderground v.1.15,2013-07-02 16:09:00,
2013-07-02 12:14:00,77.0,74.8,30.09,SW,231,0.0,1.0,93,0.08,,,0.12,Wunderground v.1.15,2013-07-02 16:14:00,
2013-07-02 12:19:00,77.2,75.0,30.09,SSE,159,0.0,1.0,93,0.08,,,0.12,Wunderground v.1.15,2013-07-02 16:19:00,
2013-07-02 12:24:00,77.6,75.7,30.09,SSE,166,0.0,1.0,94,0.08,,,0.13,Wunderground v.1.15,2013-07-02 16:24:00,
2013-07-02 12:29:00,77.9,76.0,30.08,SSE,162,0.0,1.0,94,0.13,,,0.14,Wunderground v.1.15,2013-07-02 16:29:00,
2013-07-02 12:34:00,78.4,76.5,30.08,SSE,150,0.0,1.0,94,0.12,,,0.15,Wunderground v.1.15,2013-07-02 16:34:00,
2013-07-02 12:39:00,78.8,77.2,30.08,ESE,103,1.0,1.0,95,0.06,,,0.15,Wunderground v.1.15,2013-07-02 16:39:00,
2013-07-02 12:44:00,79.3,77.4,30.08,ESE,105,0.0,2.0,94,0.04,,,0.15,Wunderground v.1.15,2013-07-02 16:44:00,
2013-07-02 12:49:00,79.7,77.8,30.08,SSE,159,0.0,2.0,94,0.00,,,0.15,Wunderground v.1.15,2013-07-02 16:49:00,
2013-07-02 12:54:00,80.2,78.3,30.08,East,80,0.0,1.0,94,0.00,,,0.15,Wunderground v.1.15,2013-07-02 16:54:00,
2013-07-02 12:59:00,80.5,78.3,30.08,East,84,0.0,3.0,93,0.00,,,0.15,Wunderground v.1.15,2013-07-02 16:59:00,
2013-07-02 13:04:00,80.9,78.7,30.08,SE,136,0.0,1.0,93,0.00,,,0.15,Wunderground v.1.15,2013-07-02 17:04:00,
2013-07-02 13:09:00,81.5,79.3,30.09,ESE,117,0.0,2.0,93,0.00,,,0.15,Wunderground v.1.15,2013-07-02 17:09:00,
2013-07-02 13:14:00,82.0,79.4,30.09,ENE,73,0.0,2.0,92,0.00,,,0.15,Wunderground v.1.15,2013-07-02 17:14:00,
2013-07-02 13:19:00,82.4,79.2,30.09,SSW,208,0.0,3.0,90,0.00,,,0.15,Wunderground v.1.15,2013-07-02 17:19:00,
2013-07-02 13:24:00,82.7,79.1,30.09,SSE,152,0.0,3.0,89,0.00,,,0.15,Wunderground v.1.15,2013-07-02 17:24:00,
2013-07-02 13:29:00,82.9,79.3,30.09,SSE,167,0.0,3.0,89,0.00,,,0.15,Wunderground v.1.15,2013-07-02 17:29:00,
2013-07-02 13:34:00,83.1,79.2,30.08,West,281,1.0,3.0,88,0.00,,,0.15,Wunderground v.1.15,2013-07-02 17:34:00,
2013-07-02 13:39:00,83.5,79.9,30.08,SW,235,0.0,3.0,89,0.00,,,0.15,Wunderground v.1.15,2013-07-02 17:39:00,
2013-07-02 13:44:00,83.9,79.6,30.08,West,267,0.0,4.0,87,0.00,,,0.15,Wunderground v.1.15,2013-07-02 17:44:00,
2013-07-02 13:49:00,84.1,79.5,30.07,SE,135,3.0,6.0,86,0.00,,,0.15,Wunderground v.1.15,2013-07-02 17:49:00,
2013-07-02 13:54:00,84.4,79.7,30.07,SSE,163,0.0,3.0,86,0.00,,,0.15,Wunderground v.1.15,2013-07-02 17:54:00,
2013-07-02 13:59:00,85.0,80.0,30.07,SE,143,0.0,6.0,85,0.00,,,0.15,Wunderground v.1.15,2013-07-02 17:59:00,
2013-07-02 14:04:00,85.3,79.2,30.07,SSW,211,5.0,9.0,82,0.00,,,0.15,Wunderground v.1.15,2013-07-02 18:04:00,
2013-07-02 14:09:00,85.9,79.8,30.06,ENE,76,0.0,9.0,82,0.00,,,0.15,Wunderground v.1.15,2013-07-02 18:09:00,
2013-07-02 14:14:00,87.0,79.7,30.06,East,87,0.0,7.0,79,0.00,,,0.15,Wunderground v.1.15,2013-07-02 18:14:00,
2013-07-02 14:19:00,87.8,79.7,30.06,South,188,2.0,7.0,77,0.00,,,0.15,Wunderground v.1.15,2013-07-02 18:19:00,
2013-07-02 14:24:00,88.2,80.1,30.06,NNE,15,0.0,6.0,77,0.00,,,0.15,Wunderground v.1.15,2013-07-02 18:24:00,
2013-07-02 14:29:00,88.8,79.8,30.06,West,267,4.0,9.0,75,0.00,,,0.15,Wunderground v.1.15,2013-07-02 18:29:00,
2013-07-02 14:34:00,88.8,79.0,30.06,WSW,246,4.0,8.0,73,0.00,,,0.15,Wunderground v.1.15,2013-07-02 18:34:00,
2013-07-02 14:39:00,88.2,78.0,30.06,ENE,67,3.0,9.0,72,0.00,,,0.15,Wunderground v.1.15,2013-07-02 18:39:00,
2013-07-02 14:44:00,87.8,77.2,30.06,SSW,192,3.0,8.0,71,0.00,,,0.15,Wunderground v.1.15,2013-07-02 18:44:00,
2013-07-02 14:49:00,87.6,78.3,30.06,South,177,2.0,8.0,74,0.00,,,0.15,Wunderground v.1.15,2013-07-02 18:49:00,
2013-07-02 14:55:00,87.1,78.2,30.06,South,176,1.0,9.0,75,0.00,,,0.15,Wunderground v.1.15,2013-07-02 18:55:00,
2013-07-02 15:00:00,86.6,78.1,30.06,ENE,67,1.0,3.0,76,0.00,,,0.15,Wunderground v.1.15,2013-07-02 19:00:00,
2013-07-02 15:05:00,86.5,78.4,30.06,SW,232,0.0,7.0,77,0.00,,,0.15,Wunderground v.1.15,2013-07-02 19:05:00,
2013-07-02 15:10:00,86.6,78.5,30.06,WSW,245,3.0,3.0,77,0.00,,,0.15,Wunderground v.1.15,2013-07-02 19:10:00,
2013-07-02 15:15:00,86.9,78.8,30.06,ESE,107,6.0,7.0,77,0.00,,,0.15,Wunderground v.1.15,2013-07-02 19:15:00,
2013-07-02 15:20:00,86.9,78.4,30.06,ESE,105,4.0,5.0,76,0.00,,,0.15,Wunderground v.1.15,2013-07-02 19:20:00,
2013-07-02 15:25:00,87.0,78.5,30.05,SSW,193,3.0,6.0,76,0.00,,,0.15,Wunderground v.1.15,2013-07-02 19:25:00,
2013-07-02 15:30:00,87.4,78.9,30.05,ENE,58,0.0,1.0,76,0.00,,,0.15,Wunderground v.1.15,2013-07-02 19:30:00,
2013-07-02 15:35:00,87.3,78.4,30.06,East,79,1.0,6.0,75,0.00,,,0.15,Wunderground v.1.15,2013-07-02 19:35:00,
2013-07-02 15:40:00,87.0,78.5,30.06,East,100,4.0,5.0,76,0.00,,,0.15,Wunderground v.1.15,2013-07-02 19:40:00,
2013-07-02 15:45:00,86.6,78.1,30.06,WSW,238,0.0,5.0,76,0.00,,,0.15,Wunderground v.1.15,2013-07-02 19:45:00,
2013-07-02 15:50:00,86.5,77.6,30.05,ENE,60,4.0,5.0,75,0.00,,,0.15,Wunderground v.1.15,2013-07-02 19:50:00,
2013-07-02 15:55:00,86.1,77.6,30.06,South,174,0.0,8.0,76,0.00,,,0.15,Wunderground v.1.15,2013-07-02 19:55:00,
2013-07-02 16:00:00,85.9,77.5,30.05,SSW,194,0.0,4.0,76,0.00,,,0.15,Wunderground v.1.15,2013-07-02 20:00:00,
2013-07-02 16:05:00,85.7,76.9,30.05,ESE,114,2.0,4.0,75,0.00,,,0.15,Wunderground v.1.15,2013-07-02 20:05:00,
2013-07-02 16:10:00,85.5,76.7,30.05,WSW,238,0.0,3.0,75,0.00,,,0.15,Wunderground v.1.15,2013-07-02 20:10:00,
2013-07-02 16:15:00,85.2,76.4,30.05,SSW,198,2.0,4.0,75,0.00,,,0.15,Wunderground v.1.15,2013-07-02 20:15:00,
2013-07-02 16:20:00,84.9,75.7,30.05,WSW,246,1.0,3.0,74,0.00,,,0.15,Wunderground v.1.15,2013-07-02 20:20:00,
2013-07-02 16:25:00,84.9,76.1,30.05,NNW,335,0.0,4.0,75,0.00,,,0.15,Wunderground v.1.15,2013-07-02 20:25:00,
2013-07-02 16:30:00,84.9,76.5,30.05,SSE,167,1.0,2.0,76,0.00,,,0.15,Wunderground v.1.15,2013-07-02 20:30:00,
2013-07-02 16:35:00,84.8,75.6,30.05,SW,232,0.0,7.0,74,0.00,,,0.15,Wunderground v.1.15,2013-07-02 20:35:00,
2013-07-02 16:40:00,84.6,75.8,30.05,ESE,117,0.0,6.0,75,0.00,,,0.15,Wunderground v.1.15,2013-07-02 20:40:00,
2013-07-02 16:45:00,84.5,75.7,30.04,SSW,205,3.0,9.0,75,0.00,,,0.15,Wunderground v.1.15,2013-07-02 20:45:00,
2013-07-02 16:50:00,84.3,75.1,30.04,South,187,3.0,6.0,74,0.00,,,0.15,Wunderground v.1.15,2013-07-02 20:50:00,
2013-07-02 16:55:00,84.2,75.4,30.05,WSW,251,4.0,6.0,75,0.00,,,0.15,Wunderground v.1.15,2013-07-02 20:55:00,
2013-07-02 17:00:00,84.0,75.2,30.05,South,181,2.0,4.0,75,0.00,,,0.15,Wunderground v.1.15,2013-07-02 21:00:00,
2013-07-02 17:05:00,83.7,75.3,30.04,East,84,2.0,5.0,76,0.00,,,0.15,Wunderground v.1.15,2013-07-02 21:05:00,
2013-07-02 17:10:00,83.7,75.7,30.04,West,272,1.0,1.0,77,0.00,,,0.15,Wunderground v.1.15,2013-07-02 21:10:00,
2013-07-02 17:15:00,83.7,75.3,30.04,SE,134,0.0,2.0,76,0.00,,,0.15,Wunderground v.1.15,2013-07-02 21:15:00,
2013-07-02 17:20:00,83.6,75.6,30.04,SSW,195,2.0,2.0,77,0.00,,,0.15,Wunderground v.1.15,2013-07-02 21:20:00,
2013-07-02 17:25:00,83.5,75.5,30.04,SSE,162,2.0,5.0,77,0.00,,,0.15,Wunderground v.1.15,2013-07-02 21:25:00,
2013-07-02 17:30:00,83.4,75.8,30.04,South,177,0.0,1.0,78,0.00,,,0.15,Wunderground v.1.15,2013-07-02 21:30:00,
2013-07-02 17:35:00,83.2,75.6,30.04,SW,221,0.0,3.0,78,0.00,,,0.15,Wunderground v.1.15,2013-07-02 21:35:00,
2013-07-02 17:40:00,83.0,75.0,30.05,SW,233,2.0,2.0,77,0.00,,,0.15,Wunderground v.1.15,2013-07-02 21:40:00,
2013-07-02 17:45:00,83.0,75.0,30.05,SW,214,0.0,5.0,77,0.00,,,0.15,Wunderground v.1.15,2013-07-02 21:45:00,
2013-07-02 17:50:00,82.9,74.9,30.05,SSW,208,1.0,1.0,77,0.00,,,0.15,Wunderground v.1.15,2013-07-02 21:50:00,
2013-07-02 17:55:00,82.9,74.9,30.06,SSW,203,0.0,1.0,77,0.00,,,0.15,Wunderground v.1.15,2013-07-02 21:55:00,
2013-07-02 18:01:00,82.8,74.8,30.06,SW,233,0.0,0.0,77,0.00,,,0.15,Wunderground v.1.15,2013-07-02 22:01:00,
2013-07-02 18:06:00,82.8,74.8,30.07,South,188,0.0,0.0,77,0.00,,,0.15,Wunderground v.1.15,2013-07-02 22:06:00,
2013-07-02 18:11:00,82.8,75.2,30.07,SW,218,0.0,0.0,78,0.00,,,0.15,Wunderground v.1.15,2013-07-02 22:11:00,
2013-07-02 18:16:00,82.8,75.2,30.07,South,188,0.0,2.0,78,0.00,,,0.15,Wunderground v.1.15,2013-07-02 22:16:00,
2013-07-02 18:21:00,82.8,75.6,30.08,SW,219,0.0,1.0,79,0.00,,,0.15,Wunderground v.1.15,2013-07-02 22:21:00,
2013-07-02 18:26:00,82.8,75.6,30.08,SSE,162,0.0,2.0,79,0.00,,,0.15,Wunderground v.1.15,2013-07-02 22:26:00,
2013-07-02 18:31:00,82.7,75.5,30.08,SSE,165,0.0,0.0,79,0.00,,,0.15,Wunderground v.1.15,2013-07-02 22:31:00,
2013-07-02 18:36:00,82.7,75.5,30.08,ENE,71,0.0,1.0,79,0.00,,,0.15,Wunderground v.1.15,2013-07-02 22:36:00,
2013-07-02 18:41:00,82.7,75.9,30.09,SE,134,0.0,1.0,80,0.00,,,0.15,Wunderground v.1.15,2013-07-02 22:41:00,
2013-07-02 18:46:00,82.7,75.9,30.09,SE,134,0.0,1.0,80,0.00,,,0.15,Wunderground v.1.15,2013-07-02 22:46:00,
2013-07-02 18:51:00,82.7,75.9,30.09,ESE,105,0.0,0.0,80,0.00,,,0.15,Wunderground v.1.15,2013-07-02 22:51:00,
2013-07-02 18:56:00,82.6,75.8,30.09,SW,214,0.0,1.0,80,0.00,,,0.15,Wunderground v.1.15,2013-07-02 22:56:00,
2013-07-02 19:01:00,82.6,75.8,30.09,SW,222,0.0,0.0,80,0.00,,,0.15,Wunderground v.1.15,2013-07-02 23:01:00,
2013-07-02 19:06:00,82.5,76.1,30.09,SW,225,0.0,2.0,81,0.00,,,0.15,Wunderground v.1.15,2013-07-02 23:06:00,
2013-07-02 19:11:00,82.3,76.3,30.09,SW,219,0.0,0.0,82,0.00,,,0.15,Wunderground v.1.15,2013-07-02 23:11:00,
2013-07-02 19:16:00,82.1,76.1,30.09,SSW,201,0.0,1.0,82,0.00,,,0.15,Wunderground v.1.15,2013-07-02 23:16:00,
2013-07-02 19:21:00,81.9,76.6,30.09,SW,225,1.0,1.0,84,0.00,,,0.15,Wunderground v.1.15,2013-07-02 23:21:00,
2013-07-02 19:26:00,81.8,76.5,30.09,SW,228,0.0,2.0,84,0.00,,,0.15,Wunderground v.1.15,2013-07-02 23:26:00,
2013-07-02 19:29:00,81.7,76.4,30.09,WSW,245,0.0,2.0,84,0.00,,,0.15,Wunderground v.1.15,2013-07-02 23:29:00,
2013-07-02 19:34:00,81.7,76.7,30.09,WSW,246,5.0,5.0,85,0.00,,,0.15,Wunderground v.1.15,2013-07-02 23:34:00,
2013-07-02 19:39:00,81.1,74.7,30.09,WSW,249,2.0,5.0,81,0.00,,,0.15,Wunderground v.1.15,2013-07-02 23:39:00,
2013-07-02 19:44:00,80.7,73.2,30.09,West,269,2.0,5.0,78,0.00,,,0.15,Wunderground v.1.15,2013-07-02 23:44:00,
2013-07-02 19:49:00,80.5,72.6,30.09,WSW,242,2.0,5.0,77,0.00,,,0.15,Wunderground v.1.15,2013-07-02 23:49:00,
2013-07-02 19:54:00,80.4,72.9,30.09,WSW,238,0.0,2.0,78,0.00,,,0.15,Wunderground v.1.15,2013-07-02 23:54:00,
2013-07-02 19:59:00,80.3,72.8,30.09,SW,228,0.0,2.0,78,0.00,,,0.15,Wunderground v.1.15,2013-07-02 23:59:00,
2013-07-02 20:01:00,80.3,72.8,30.09,WSW,253,0.0,1.0,78,0.00,,,0.15,Wunderground v.1.15,2013-07-03 00:01:00,
2013-07-02 20:06:00,80.3,72.8,30.10,West,259,0.0,2.0,78,0.00,,,0.15,Wunderground v.1.15,2013-07-03 00:06:00,
2013-07-02 20:11:00,80.0,73.6,30.09,West,278,0.0,2.0,81,0.00,,,0.15,Wunderground v.1.15,2013-07-03 00:11:00,
2013-07-02 20:16:00,79.9,74.3,30.10,WNW,283,0.0,2.0,83,0.00,,,0.15,Wunderground v.1.15,2013-07-03 00:16:00,
2013-07-02 20:21:00,79.7,74.4,30.10,West,277,1.0,3.0,84,0.00,,,0.15,Wunderground v.1.15,2013-07-03 00:21:00,
2013-07-02 20:24:00,79.6,74.0,30.10,WNW,283,3.0,4.0,83,0.00,,,0.15,Wunderground v.1.15,2013-07-03 00:24:00,
2013-07-02 20:28:00,79.4,73.8,30.10,NNW,330,1.0,4.0,83,0.00,,,0.15,Wunderground v.1.15,2013-07-03 00:28:00,
2013-07-02 20:33:00,79.2,74.3,30.10,WNW,291,0.0,3.0,85,0.00,,,0.15,Wunderground v.1.15,2013-07-03 00:33:00,
2013-07-02 20:38:00,79.1,74.5,30.10,NW,316,0.0,3.0,86,0.00,,,0.15,Wunderground v.1.15,2013-07-03 00:38:00,
2013-07-02 20:43:00,79.0,74.8,30.10,West,276,0.0,1.0,87,0.00,,,0.15,Wunderground v.1.15,2013-07-03 00:43:00,
2013-07-02 20:48:00,78.8,74.6,30.11,ENE,65,0.0,1.0,87,0.00,,,0.15,Wunderground v.1.15,2013-07-03 00:48:00,
2013-07-02 20:53:00,78.6,74.7,30.11,North,356,0.0,1.0,88,0.00,,,0.15,Wunderground v.1.15,2013-07-03 00:53:00,
2013-07-02 20:58:00,78.5,74.6,30.11,North,349,0.0,1.0,88,0.00,,,0.15,Wunderground v.1.15,2013-07-03 00:58:00,
2013-07-02 21:01:00,78.4,74.5,30.11,WNW,294,0.0,0.0,88,0.00,,,0.15,Wunderground v.1.15,2013-07-03 01:01:00,
2013-07-02 21:03:00,78.3,74.5,30.11,ENE,59,0.0,0.0,88,0.00,,,0.15,Wunderground v.1.15,2013-07-03 01:03:00,
2013-07-02 21:08:00,78.2,74.7,30.11,NW,314,0.0,1.0,89,0.00,,,0.15,Wunderground v.1.15,2013-07-03 01:08:00,
2013-07-02 21:09:00,78.2,74.7,30.11,NW,316,0.0,1.0,89,0.00,,,0.15,Wunderground v.1.15,2013-07-03 01:09:00,
2013-07-02 21:14:00,78.1,74.6,30.11,NW,319,0.0,0.0,89,0.00,,,0.15,Wunderground v.1.15,2013-07-03 01:14:00,
2013-07-02 21:19:00,78.0,74.5,30.12,NE,34,0.0,1.0,89,0.00,,,0.15,Wunderground v.1.15,2013-07-03 01:19:00,
2013-07-02 21:24:00,78.0,74.8,30.12,NE,34,0.0,0.0,90,0.00,,,0.15,Wunderground v.1.15,2013-07-03 01:24:00,
2013-07-02 21:26:00,77.9,74.7,30.12,NE,34,0.0,0.0,90,0.00,,,0.15,Wunderground v.1.15,2013-07-03 01:26:00,
2013-07-02 21:31:00,77.8,74.6,30.12,NE,34,0.0,0.0,90,0.00,,,0.15,Wunderground v.1.15,2013-07-03 01:31:00,
2013-07-02 21:36:00,77.8,74.6,30.12,NNE,25,0.0,1.0,90,0.00,,,0.15,Wunderground v.1.15,2013-07-03 01:36:00,
2013-07-02 21:41:00,77.8,74.6,30.13,ENE,59,0.0,0.0,90,0.00,,,0.15,Wunderground v.1.15,2013-07-03 01:41:00,
2013-07-02 21:46:00,77.8,74.6,30.13,ENE,58,0.0,1.0,90,0.00,,,0.15,Wunderground v.1.15,2013-07-03 01:46:00,
2013-07-02 21:51:00,77.8,74.6,30.13,ENE,58,0.0,0.0,90,0.00,,,0.15,Wunderground v.1.15,2013-07-03 01:51:00,
2013-07-02 21:56:00,77.7,74.5,30.13,NE,49,1.0,1.0,90,0.00,,,0.15,Wunderground v.1.15,2013-07-03 01:56:00,
2013-07-02 22:01:00,77.6,74.4,30.13,NE,56,0.0,0.0,90,0.00,,,0.15,Wunderground v.1.15,2013-07-03 02:01:00,
2013-07-02 22:06:00,77.6,74.4,30.13,NE,56,0.0,0.0,90,0.00,,,0.15,Wunderground v.1.15,2013-07-03 02:06:00,
2013-07-02 22:12:00,77.5,74.3,30.13,NE,54,0.0,0.0,90,0.00,,,0.15,Wunderground v.1.15,2013-07-03 02:12:00,
2013-07-02 22:17:00,77.5,74.3,30.13,NE,54,0.0,0.0,90,0.00,,,0.15,Wunderground v.1.15,2013-07-03 02:17:00,
2013-07-02 22:22:00,77.4,74.2,30.12,NE,53,0.0,0.0,90,0.00,,,0.15,Wunderground v.1.15,2013-07-03 02:22:00,
2013-07-02 22:27:00,77.4,74.2,30.13,NE,54,0.0,0.0,90,0.00,,,0.15,Wunderground v.1.15,2013-07-03 02:27:00,
2013-07-02 22:32:00,77.4,74.2,30.13,ENE,70,0.0,1.0,90,0.00,,,0.15,Wunderground v.1.15,2013-07-03 02:32:00,
2013-07-02 22:37:00,77.4,74.2,30.12,ENE,68,0.0,1.0,90,0.00,,,0.15,Wunderground v.1.15,2013-07-03 02:37:00,
2013-07-02 22:43:00,77.5,74.3,30.13,NNE,32,0.0,0.0,90,0.00,,,0.15,Wunderground v.1.15,2013-07-03 02:43:00,
2013-07-02 22:46:00,77.5,74.3,30.13,NNE,31,0.0,0.0,90,0.00,,,0.15,Wunderground v.1.15,2013-07-03 02:46:00,
2013-07-02 22:51:00,77.5,74.3,30.13,NNE,32,0.0,0.0,90,0.00,,,0.15,Wunderground v.1.15,2013-07-03 02:51:00,
2013-07-02 22:56:00,77.6,74.4,30.13,NNE,31,0.0,1.0,90,0.00,,,0.15,Wunderground v.1.15,2013-07-03 02:56:00,
2013-07-02 23:01:00,77.5,74.3,30.13,ENE,75,0.0,0.0,90,0.00,,,0.15,Wunderground v.1.15,2013-07-03 03:01:00,
2013-07-02 23:02:00,77.5,74.3,30.13,ENE,75,0.0,0.0,90,0.00,,,0.15,Wunderground v.1.15,2013-07-03 03:02:00,
2013-07-02 23:08:00,77.5,74.3,30.13,NE,55,0.0,1.0,90,0.00,,,0.15,Wunderground v.1.15,2013-07-03 03:08:00,
2013-07-02 23:13:00,77.5,74.3,30.13,NE,56,0.0,0.0,90,0.00,,,0.15,Wunderground v.1.15,2013-07-03 03:13:00,
2013-07-02 23:18:00,77.5,74.3,30.13,NE,56,0.0,0.0,90,0.00,,,0.15,Wunderground v.1.15,2013-07-03 03:18:00,
2013-07-02 23:21:00,77.5,74.3,30.13,ENE,57,0.0,0.0,90,0.00,,,0.15,Wunderground v.1.15,2013-07-03 03:21:00,
2013-07-02 23:26:00,77.4,74.2,30.13,ENE,57,0.0,0.0,90,0.00,,,0.15,Wunderground v.1.15,2013-07-03 03:26:00,
2013-07-02 23:31:00,77.3,74.1,30.13,ENE,57,0.0,0.0,90,0.00,,,0.15,Wunderground v.1.15,2013-07-03 03:31:00,
2013-07-02 23:35:00,77.2,74.0,30.13,NE,56,0.0,0.0,90,0.00,,,0.15,Wunderground v.1.15,2013-07-03 03:35:00,
2013-07-02 23:39:00,77.1,73.9,30.13,NE,56,0.0,0.0,90,0.00,,,0.15,Wunderground v.1.15,2013-07-03 03:39:00,
2013-07-02 23:44:00,77.0,74.2,30.13,NE,56,0.0,0.0,91,0.00,,,0.15,Wunderground v.1.15,2013-07-03 03:44:00,
2013-07-02 23:49:00,77.0,74.2,30.13,NE,56,0.0,0.0,91,0.00,,,0.15,Wunderground v.1.15,2013-07-03 03:49:00,
2013-07-02 23:54:00,77.0,74.2,30.13,ENE,57,0.0,0.0,91,0.00,,,0.15,Wunderground v.1.15,2013-07-03 03:54:00,
2013-07-02 23:59:00,77.0,74.2,30.12,NE,56,0.0,0.0,91,0.00,,,0.15,Wunderground v.1.15,2013-07-03 03:59:00,